Latest Coastal Weather Observations for Hobart Airport

IDT60701

Issued at 12:11 am EST Thursday 28 May 2015 (issued every 10 minutes, with the page automatically refreshed every 10 minutes)

About coastal observations | Map of coastal stations | Coastal observations for TAS | Marine services | Other Formats
Station Details ID: 094008 Name: HOBART AIRPORT Lat: -42.83 Lon: 147.50 Height: 4.0 m
Data from the previous 72 hours. | See also: Recent months at Hobart Airport
Date/Time
EST
Temp

°C
Wind Pressure Rain
since 9am
mm
Weather Cloud Vis
km
Sea
Height
m
Swell
Dir
 
Speed
knots
Gust
knots
hPa Trend Height
m
Period
s
Dir
27/11:30pm 14.0 N 9 14 1011.8 - 0.0 - Partly cloudy 10 - - - -
27/11:00pm 14.3 N 12 19 1011.4 - 0.0 - Partly cloudy 10 - - - -
27/10:30pm 14.0 N 12 17 1011.3 - 0.0 - Partly cloudy 10 - - - -
27/10:00pm 13.5 N 9 14 1011.5 - 0.0 - - 10 - - - -
27/09:30pm 13.6 N 9 14 1011.9 - 0.0 - Partly cloudy 10 - - - -
27/09:00pm 12.6 N 13 20 1012.2 F 0.0 Fine Partly cloudy 40 - - - -
27/08:30pm 12.1 N 12 19 1012.1 - 0.0 - - 10 - - - -
27/08:00pm 12.1 N 11 16 1012.0 - 0.0 - - 10 - - - -
27/07:30pm 12.5 N 11 17 1012.3 - 0.0 - - 10 - - - -
27/07:00pm 13.2 N 11 15 1012.4 - 0.0 - Mostly clear 10 - - - -
27/06:30pm 13.4 N 12 19 1012.3 - 0.0 - - 10 - - - -
27/06:00pm 13.5 N 12 20 1012.4 F 0.0 Fine Mostly clear 40 - - - -
27/05:30pm 13.7 N 9 14 1012.5 - 0.0 - Mostly clear 10 - - - -
27/05:00pm 14.4 NNE 9 13 1012.6 - 0.0 - Mostly clear 10 - - - -
27/04:30pm 14.9 N 12 18 1012.3 - 0.0 - Mostly clear 10 - - - -
27/04:00pm 15.8 N 11 15 1012.4 - 0.0 - Mostly clear 10 - - - -
27/03:30pm 15.4 N 11 17 1012.6 - 0.0 - Mostly clear 10 - - - -
27/03:00pm 16.7 N 11 16 1013.0 F 0.0 Fine Mostly clear 40 - - - -
27/02:30pm 17.3 N 10 16 1013.1 - 0.0 - Mostly clear 10 - - - -
27/02:00pm 16.8 N 11 17 1013.2 - 0.0 - Mostly clear 10 - - - -
27/01:30pm 15.2 N 11 17 1013.9 - 0.0 - Mostly clear 10 - - - -
27/01:00pm 15.1 N 13 19 1014.1 - 0.0 - Mostly clear 10 - - - -
27/12:30pm 14.8 N 14 21 1014.6 - 0.0 - Mostly clear 10 - - - -
27/12:00pm 15.0 N 14 20 1015.2 F 0.0 Fine Mostly cloudy 35 - - - -
27/11:30am 14.6 N 11 17 1016.0 - 0.0 - Mostly clear 10 - - - -
27/11:00am 10.1 CALM 0 5 1016.7 - 0.0 - Mostly clear 10 - - - -
27/10:30am 9.1 CALM 0 0 1017.3 - 0.0 - Mostly clear 10 - - - -
27/10:00am 8.6 NW 5 6 1017.4 - 0.0 - Mostly clear 10 - - - -
27/09:30am 8.2 WNW 7 8 1017.6 - 0.0 - Mostly clear 10 - - - -
27/09:00am 7.3 NW 7 9 1018.0 F 0.0 Fine Mostly cloudy 20 - - - -
27/08:30am 6.8 NNW 6 8 1018.1 - 0.0 - Mostly clear 10 - - - -
27/08:00am 6.4 NW 7 8 1018.4 - 0.0 - Mostly clear 10 - - - -
27/07:30am 5.8 WNW 7 9 1018.5 - 0.0 - Mostly clear 10 - - - -
27/07:00am 5.6 NW 9 10 1018.6 - 0.0 - Mostly clear 10 - - - -
27/06:30am 5.1 NW 9 10 1019.0 - 0.0 - - 10 - - - -
27/06:00am 5.7 NW 10 11 1019.0 F 0.0 - Mostly clear 10 - - - -
27/05:30am 5.4 NW 9 10 1019.3 - 0.0 - - 10 - - - -
27/05:00am 5.6 NNW 6 8 1019.5 - 0.0 - Partly cloudy 10 - - - -
27/04:30am 5.6 NNW 4 5 1019.8 - 0.0 - Partly cloudy 10 - - - -
27/04:00am 5.0 NW 8 10 1020.3 - 0.0 - - 9 - - - -
27/03:46am 4.3 NNW 4 5 1020.5 - 0.0 - - 6 - - - -
27/03:30am 5.0 WNW 4 5 1020.7 - 0.0 - - 10 - - - -
27/03:00am 5.0 NNW 4 5 1021.3 F 0.0 - - 10 - - - -
27/02:30am 5.4 NNW 5 7 1021.6 - 0.0 - Partly cloudy 10 - - - -
27/02:00am 5.3 NW 5 7 1021.9 - 0.0 - - 10 - - - -
27/01:30am 5.6 NNW 3 4 1022.2 - 0.0 - - 9 - - - -
27/01:21am 5.6 NW 5 8 1022.2 - 0.0 - - 8 - - - -
27/01:08am 5.2 NW 6 6 1022.2 - 0.0 - - 6 - - - -
27/01:00am 5.3 NW 5 6 1022.2 - 0.0 - - 7 - - - -
27/12:30am 5.6 WNW 3 4 1022.5 - 0.0 - - 9 - - - -
27/12:00am 5.6 WNW 5 5 1023.1 F 0.0 - - 9 - - - -
 
Date/Time
EST
Temp

°C
Wind Pressure Rain
since 9am
mm
Weather Cloud Vis
km
Sea
Height
m
Swell
Dir
 
Speed
knots
Gust
knots
hPa Trend Height
m
Period
s
Dir
26/11:49pm 5.7 NW 4 5 1023.2 - 0.0 - - 10 - - - -
26/11:30pm 6.0 NW 5 6 1023.4 - 0.0 - - 6 - - - -
26/11:00pm 6.3 NW 5 6 1023.9 - 0.0 - - 10 - - - -
26/10:30pm 6.6 NW 5 5 1024.1 - 0.0 - - 10 - - - -
26/10:14pm 6.7 NW 5 7 1024.3 - 0.0 - - 9 - - - -
26/10:00pm 5.3 WNW 3 5 1024.3 - 0.0 - - 5 - - - -
26/09:55pm 5.6 WNW 1 5 1024.3 - 0.0 - - 6 - - - -
26/09:42pm 6.4 CALM 0 0 1024.4 - 0.0 - - 10 - - - -
26/09:30pm 5.6 CALM 0 0 1024.3 - 0.0 - - 6 - - - -
26/09:27pm 6.0 CALM 0 0 1024.4 - 0.0 - - 5 - - - -
26/09:09pm 5.8 CALM 0 0 1024.4 - 0.0 - - 6 - - - -
26/09:00pm 6.8 CALM 0 0 1024.5 F 0.0 - - 8 - - - -
26/08:30pm 8.0 WNW 1 4 1024.6 - 0.0 - - 10 - - - -
26/08:00pm 8.0 SW 1 4 1024.8 - 0.0 - - 10 - - - -
26/07:30pm 9.5 S 5 6 1024.9 - 0.0 - - 10 - - - -
26/07:00pm 9.7 SSE 5 5 1024.9 - 0.0 - Mostly clear 10 - - - -
26/06:30pm 10.4 SSW 5 6 1025.0 - 0.0 - Partly cloudy 10 - - - -
26/06:00pm 10.4 S 7 9 1024.9 F 0.0 Fine Mostly clear 25 - - - -
26/05:30pm 11.1 S 7 8 1024.9 - 0.0 - Mostly clear 10 - - - -
26/05:00pm 11.9 S 8 10 1024.9 - 0.0 - Mostly clear 10 - - - -
26/04:30pm 12.1 SSE 8 10 1024.9 - 0.0 - Mostly clear 10 - - - -
26/04:00pm 12.4 SSE 7 8 1024.9 - 0.0 - Mostly clear 10 - - - -
26/03:30pm 13.0 SSE 6 7 1024.9 - 0.0 - Mostly clear 10 - - - -
26/03:00pm 13.1 S 6 7 1024.8 F 0.0 Fine Mostly cloudy 40 - - - -
26/02:30pm 13.6 SSE 7 8 1025.0 - 0.0 - Mostly clear 10 - - - -
26/02:00pm 13.4 SSE 7 8 1025.0 - 0.0 - Mostly clear 10 - - - -
26/01:30pm 13.5 SSE 8 9 1025.2 - 0.0 - Mostly clear 10 - - - -
26/01:00pm 13.9 SSE 8 9 1025.4 - 0.0 - Mostly clear 10 - - - -
26/12:30pm 14.4 ENE 4 6 1025.6 - 0.0 - Mostly clear 10 - - - -
26/12:00pm 14.5 NNE 6 6 1026.0 F 0.0 Fine Mostly clear 40 - - - -
26/11:30am 14.2 NNE 5 6 1026.5 - 0.0 - Mostly clear 10 - - - -
26/11:00am 13.5 NNW 2 4 1026.8 - 0.0 - Mostly clear 10 - - - -
26/10:30am 12.1 WNW 4 5 1027.1 - 0.0 - Mostly clear 10 - - - -
26/10:00am 10.7 N 4 5 1027.1 - 0.0 - Mostly clear 10 - - - -
26/09:30am 9.6 N 4 5 1027.1 - 0.0 - Mostly clear 10 - - - -
26/09:00am 9.2 NW 5 6 1027.2 R 0.0 Fine Partly cloudy 30 - - - -
26/08:30am 8.0 NNW 3 4 1027.1 - 0.0 - Mostly clear 10 - - - -
26/08:00am 7.4 W 4 5 1026.9 - 0.0 - Mostly clear 10 - - - -
26/07:30am 8.0 N 4 4 1026.8 - 0.0 - Mostly clear 10 - - - -
26/07:00am 6.2 NE 5 6 1026.4 - 0.0 - Mostly clear 10 - - - -
26/06:30am 7.5 W 5 6 1026.1 - 0.0 - Mostly clear 10 - - - -
26/06:00am 9.4 CALM 0 0 1026.0 R 0.0 Fine Partly cloudy 30 - - - -
26/05:30am 8.7 SE 4 5 1025.8 - 0.0 - Mostly clear 10 - - - -
26/05:00am 8.6 E 5 7 1025.7 - 0.0 - Mostly clear 10 - - - -
26/04:30am 8.5 ENE 5 6 1025.5 - 0.0 - Mostly clear 10 - - - -
26/04:00am 9.5 SW 2 4 1025.4 - 0.0 - Mostly clear 10 - - - -
26/03:30am 10.2 WSW 6 7 1025.4 - 0.0 - Mostly clear 10 - - - -
26/03:00am 10.9 NNW 7 9 1025.4 R 0.0 Fine Mostly cloudy 40 - - - -
26/02:30am 9.6 N 5 7 1025.6 - 0.0 - Mostly clear 10 - - - -
26/02:00am 9.7 NNW 6 8 1025.6 - 0.0 - Mostly clear 10 - - - -
26/01:30am 9.9 W 3 5 1025.5 - 0.0 - Mostly clear 10 - - - -
26/01:00am 9.2 NNW 6 10 1025.5 - 0.0 - Mostly clear 10 - - - -
26/12:30am 10.1 NNW 6 8 1025.5 - 0.0 - Mostly clear 10 - - - -
26/12:00am 10.5 N 5 8 1025.5 F 0.0 Fine Mostly cloudy 40 - - - -
 
Date/Time
EST
Temp

°C
Wind Pressure Rain
since 9am
mm
Weather Cloud Vis
km
Sea
Height
m
Swell
Dir
 
Speed
knots
Gust
knots
hPa Trend Height
m
Period
s
Dir
25/11:30pm 10.2 NNE 5 10 1025.6 - 0.0 - Mostly clear 10 - - - -
25/11:00pm 9.3 NNE 7 10 1025.4 - 0.0 - Mostly clear 10 - - - -
25/10:30pm 8.3 N 6 9 1025.7 - 0.0 - Mostly clear 10 - - - -
25/10:00pm 9.0 N 6 8 1025.9 - 0.0 - Mostly clear 10 - - - -
25/09:30pm 9.1 NW 7 8 1026.0 - 0.0 - Mostly clear 10 - - - -
25/09:00pm 7.5 NNW 9 12 1026.0 F 0.0 Fine Mostly cloudy 40 - - - -
25/08:30pm 8.5 NNW 6 8 1026.0 - 0.0 - Mostly clear 10 - - - -
25/08:00pm 8.7 NW 9 13 1026.2 - 0.0 - Mostly clear 10 - - - -
25/07:30pm 10.1 NW 10 13 1026.3 - 0.0 - Mostly clear 10 - - - -
25/07:00pm 8.6 NW 8 10 1026.2 - 0.0 - Mostly clear 10 - - - -
25/06:30pm 9.7 NW 7 8 1026.1 - 0.0 - Mostly clear 10 - - - -
25/06:00pm 10.5 NNW 7 9 1026.1 F 0.0 Fine Partly cloudy 40 - - - -
25/05:30pm 10.5 NW 6 8 1026.0 - 0.0 - Mostly clear 10 - - - -
25/05:00pm 11.0 NNW 5 8 1025.8 - 0.0 - Mostly clear 10 - - - -
25/04:30pm 11.0 NNW 5 7 1025.8 - 0.0 - Mostly clear 10 - - - -
25/04:00pm 12.1 NNW 6 9 1025.8 - 0.0 - Mostly clear 10 - - - -
25/03:30pm 12.2 NW 8 12 1026.2 - 0.0 - Mostly clear 10 - - - -
25/03:00pm 12.1 NNW 8 11 1026.1 F 0.0 Fine Mostly cloudy 40 - - - -
25/02:30pm 12.2 NNW 8 11 1026.2 - 0.0 - Mostly clear 10 - - - -
25/02:00pm 12.0 NW 9 13 1026.4 - 0.0 - Mostly clear 10 - - - -
25/01:30pm 12.2 NW 11 15 1026.6 - 0.0 - Mostly clear 10 - - - -
25/01:00pm 12.0 NNW 11 15 1026.8 - 0.0 - Mostly clear 10 - - - -
25/12:30pm 11.7 NW 9 12 1027.0 - 0.0 - Partly cloudy 10 - - - -
25/12:00pm 12.5 NW 10 14 1027.2 F 0.0 Fine Mostly clear 40 - - - -
25/11:30am 11.9 NW 12 17 1027.6 - 0.0 - Mostly clear 10 - - - -
25/11:00am 10.8 NW 11 15 1028.2 - 0.0 - Mostly clear 10 - - - -
25/10:30am 10.2 NNW 7 12 1028.4 - 0.0 - Mostly clear 10 - - - -
25/10:00am 8.9 NW 7 9 1028.5 - 0.0 - Partly cloudy 10 - - - -
25/09:30am 6.9 NW 7 9 1028.7 - 0.0 - Partly cloudy 10 - - - -
25/09:00am 6.3 NNW 6 8 1028.7 F 0.0 Fine Partly cloudy 40 - - - -
25/08:30am 6.4 N 6 9 1028.9 - - - Mostly clear 10 - - - -
25/08:00am 6.7 NNW 8 12 1028.9 - - - Mostly clear 10 - - - -
25/07:30am 6.4 NNW 7 9 1028.8 - - - Mostly clear 10 - - - -
25/07:00am 5.6 N 5 8 1028.6 - - - Mostly clear 10 - - - -
25/06:30am 6.1 N 5 6 1028.5 - 0.0 - Mostly clear 10 - - - -
25/06:00am 5.3 N 6 10 1028.4 F 0.0 Fine Mostly cloudy 30 - - - -
25/05:30am 5.8 NNW 6 8 1028.2 - 0.0 - Mostly clear 10 - - - -
25/05:00am 5.3 NNW 8 11 1028.3 - 0.0 - Mostly clear 10 - - - -
25/04:30am 5.4 NNW 7 10 1028.5 - 0.0 - Mostly clear 10 - - - -
25/04:00am 4.9 NNW 7 10 1028.5 - 0.0 - Mostly clear 10 - - - -
25/03:30am 4.7 NNW 8 10 1028.6 - 0.0 - Mostly clear 10 - - - -
25/03:00am 3.9 NW 8 9 1028.9 R 0.0 Fine Partly cloudy 30 - - - -
25/02:30am 4.3 NW 6 8 1028.9 - 0.0 - Mostly clear 10 - - - -
25/02:00am 4.5 NNW 7 10 1028.9 - 0.0 - Mostly clear 10 - - - -
25/01:30am 4.8 W 4 7 1029.1 - 0.0 - Mostly clear 10 - - - -
25/01:00am 4.7 WNW 8 9 1029.2 - 0.0 - Mostly clear 10 - - - -
25/12:30am 5.1 NW 7 9 1029.3 - 0.0 - Mostly clear 10 - - - -

Other Formats:

Comma delimited format used in spreadsheet applications
http://www.bom.gov.au/fwo/IDT60701/IDT60701.94975.axf

JavaScript Object Notation format (JSON) in row-major order
http://www.bom.gov.au/fwo/IDT60701/IDT60701.94975.json